Time;durP1;ratioP1;P1;durP2;ratioP2;P2;SDS_P1;SDS_P2;PMS_P1;PMS_P2;Temp;Humidity;BMP_temperature;BMP_pressure;BME280_temperature;BME280_humidity;BME280_pressure;Samples;Min_cycle;Max_cycle;Signal;HPM_P1;HPM_P2
2023/07/17 00:01:38;;;;;;;3.50;2.63;;;19.80;92.40;;;;;;5063239;28;20073;-84
2023/07/17 00:04:04;;;;;;;5.15;2.60;;;19.80;92.50;;;;;;5062243;28;20036;-85
2023/07/17 00:06:30;;;;;;;4.50;2.75;;;19.70;92.50;;;;;;5061917;28;20029;-85
2023/07/17 00:08:56;;;;;;;4.15;2.67;;;19.70;92.60;;;;;;5077644;28;20029;-86
2023/07/17 00:11:22;;;;;;;4.85;2.85;;;19.70;92.70;;;;;;5067007;28;20032;-85
2023/07/17 00:13:47;;;;;;;4.32;2.70;;;19.60;92.80;;;;;;5022100;28;20426;-85
2023/07/17 00:16:13;;;;;;;4.07;2.80;;;19.70;92.90;;;;;;5056636;28;20029;-85
2023/07/17 00:18:39;;;;;;;5.70;3.35;;;19.70;93.00;;;;;;5021523;28;20203;-85
2023/07/17 00:21:05;;;;;;;4.90;2.90;;;19.60;93.00;;;;;;5021060;28;20036;-85
2023/07/17 00:23:31;;;;;;;4.80;3.17;;;19.70;93.10;;;;;;5021653;28;20112;-85
2023/07/17 00:25:57;;;;;;;4.20;3.00;;;19.60;93.10;;;;;;5055283;28;20063;-85
2023/07/17 00:28:23;;;;;;;3.58;2.97;;;19.70;93.20;;;;;;5021810;28;20029;-85
2023/07/17 00:30:49;;;;;;;5.70;3.03;;;19.60;93.30;;;;;;5021125;28;20044;-85
2023/07/17 00:33:14;;;;;;;4.05;2.97;;;19.60;93.30;;;;;;5037475;28;20029;-85
2023/07/17 00:35:40;;;;;;;4.65;3.20;;;19.60;93.40;;;;;;5020931;28;20131;-86
2023/07/17 00:38:08;;;;;;;4.65;2.85;;;19.60;93.40;;;;;;5021157;28;20072;-85
2023/07/17 00:40:38;;;;;;;5.07;2.92;;;19.60;93.40;;;;;;5037352;28;20029;-85
2023/07/17 00:43:10;;;;;;;3.78;2.88;;;19.60;93.30;;;;;;5037182;28;20017;-86
2023/07/17 00:45:40;;;;;;;2.88;2.58;;;19.60;93.30;;;;;;5037363;28;20024;-85
2023/07/17 00:48:06;;;;;;;3.05;2.65;;;19.60;93.30;;;;;;5055146;28;20026;-86
2023/07/17 00:50:33;;;;;;;4.20;2.60;;;19.60;93.30;;;;;;5036942;28;20388;-85
2023/07/17 00:52:59;;;;;;;5.85;2.83;;;19.50;93.30;;;;;;5036789;28;20043;-85
2023/07/17 00:55:25;;;;;;;3.95;2.95;;;19.50;93.40;;;;;;5037005;28;20472;-86
2023/07/17 00:57:52;;;;;;;6.28;3.08;;;19.60;93.40;;;;;;5036986;28;20388;-85
2023/07/17 01:00:22;;;;;;;5.40;3.13;;;19.50;93.40;;;;;;5036553;28;20116;-85
2023/07/17 01:02:53;;;;;;;3.67;2.67;;;19.50;93.40;;;;;;5020231;28;20439;-86
2023/07/17 01:05:22;;;;;;;3.60;2.97;;;19.40;93.50;;;;;;5020604;28;20025;-85
2023/07/17 01:07:47;;;;;;;3.85;2.80;;;19.50;93.50;;;;;;5020169;28;20407;-85
2023/07/17 01:10:13;;;;;;;4.45;3.10;;;19.40;93.50;;;;;;5020303;28;20051;-85
2023/07/17 01:12:39;;;;;;;3.65;2.58;;;19.40;93.50;;;;;;5020446;28;20028;-85
2023/07/17 01:15:06;;;;;;;4.40;3.05;;;19.40;93.50;;;;;;5020198;28;20469;-85
2023/07/17 01:17:32;;;;;;;4.60;3.30;;;19.30;93.50;;;;;;5036565;28;20053;-85
2023/07/17 01:20:00;;;;;;;4.35;3.30;;;19.30;93.50;;;;;;5054262;28;20017;-85
2023/07/17 01:22:29;;;;;;;4.35;2.88;;;19.30;93.50;;;;;;5036308;28;20425;-85
2023/07/17 01:24:55;;;;;;;3.60;2.95;;;19.30;93.60;;;;;;5020499;28;20028;-85
2023/07/17 01:27:20;;;;;;;5.63;3.17;;;19.30;93.60;;;;;;5020177;28;20025;-85
2023/07/17 01:29:46;;;;;;;5.55;3.40;;;19.30;93.60;;;;;;5036544;28;20385;-85
2023/07/17 01:32:12;;;;;;;6.00;3.28;;;19.30;93.70;;;;;;5054432;28;20031;-85
2023/07/17 01:34:38;;;;;;;4.35;2.97;;;19.30;93.70;;;;;;5036598;28;20017;-84
2023/07/17 01:37:05;;;;;;;3.97;3.03;;;19.20;93.70;;;;;;5020106;28;20059;-85
2023/07/17 01:39:31;;;;;;;3.60;3.10;;;19.20;93.80;;;;;;5036576;28;20024;-85
2023/07/17 01:41:58;;;;;;;4.45;3.17;;;19.20;93.80;;;;;;5019715;28;20380;-85
2023/07/17 01:44:28;;;;;;;5.32;2.85;;;19.20;93.80;;;;;;5036649;28;20114;-86
2023/07/17 01:47:01;;;;;;;4.82;3.22;;;19.20;93.80;;;;;;5036839;28;20032;-85
2023/07/17 01:49:27;;;;;;;4.18;3.10;;;19.10;93.80;;;;;;5054849;28;20468;-85
2023/07/17 01:51:52;;;;;;;3.67;3.10;;;19.10;93.90;;;;;;5021851;28;20037;-85
2023/07/17 01:54:18;;;;;;;4.13;3.13;;;19.10;93.90;;;;;;5058971;28;20011;-85
2023/07/17 01:56:44;;;;;;;3.80;3.20;;;19.10;93.90;;;;;;5061396;28;20028;-84
2023/07/17 01:59:09;;;;;;;3.72;3.10;;;19.10;93.90;;;;;;5061061;28;20017;-84
2023/07/17 02:01:35;;;;;;;5.05;3.13;;;19.00;93.90;;;;;;5060369;28;20029;-85
2023/07/17 02:04:01;;;;;;;4.38;2.85;;;19.00;94.00;;;;;;5061658;28;20021;-85
2023/07/17 02:06:29;;;;;;;4.30;2.72;;;19.00;94.00;;;;;;5036535;28;20021;-84
2023/07/17 02:08:55;;;;;;;4.20;2.67;;;18.90;94.00;;;;;;5036119;28;20025;-85
2023/07/17 02:11:22;;;;;;;4.72;3.17;;;18.90;94.10;;;;;;5036120;28;20028;-85
2023/07/17 02:13:48;;;;;;;4.70;3.05;;;18.90;94.00;;;;;;5053623;28;20054;-85
2023/07/17 02:16:14;;;;;;;4.80;2.97;;;18.90;94.00;;;;;;5019473;28;20035;-85
2023/07/17 02:18:41;;;;;;;5.75;3.50;;;18.80;94.00;;;;;;5019287;28;20017;-85
2023/07/17 02:21:06;;;;;;;5.70;3.40;;;18.80;94.00;;;;;;5036012;28;20037;-85
2023/07/17 02:23:32;;;;;;;5.65;3.08;;;18.80;94.00;;;;;;5023422;28;20079;-86
2023/07/17 02:25:58;;;;;;;5.25;2.97;;;18.80;94.00;;;;;;5039722;28;20384;-85
2023/07/17 02:28:23;;;;;;;5.57;3.13;;;18.80;94.00;;;;;;5023430;28;20054;-85
2023/07/17 02:30:49;;;;;;;3.75;2.70;;;18.80;94.10;;;;;;5039269;28;20033;-84
2023/07/17 02:33:15;;;;;;;5.53;3.20;;;18.80;94.10;;;;;;5057492;28;20455;-85
2023/07/17 02:35:40;;;;;;;4.90;3.08;;;18.70;94.10;;;;;;5039473;28;20033;-85
2023/07/17 02:38:06;;;;;;;4.38;2.90;;;18.70;94.10;;;;;;5057691;28;20056;-85
2023/07/17 02:40:32;;;;;;;4.30;2.88;;;18.60;94.20;;;;;;5023325;28;20117;-85
2023/07/17 02:42:57;;;;;;;5.13;3.08;;;18.60;94.20;;;;;;5039347;28;20393;-85
2023/07/17 02:45:23;;;;;;;5.35;2.95;;;18.60;94.20;;;;;;5023238;28;20040;-84
2023/07/17 02:47:49;;;;;;;5.55;3.05;;;18.50;94.20;;;;;;5023004;28;20029;-85
2023/07/17 02:50:14;;;;;;;5.38;2.90;;;18.60;94.20;;;;;;5039023;28;20036;-85
2023/07/17 02:52:41;;;;;;;4.80;2.88;;;18.50;94.30;;;;;;5022765;28;20053;-85
2023/07/17 02:55:07;;;;;;;6.07;3.33;;;18.50;94.30;;;;;;5022748;28;20025;-85
2023/07/17 02:57:36;;;;;;;6.53;3.10;;;18.50;94.40;;;;;;5057459;28;20102;-85
2023/07/17 03:00:12;;;;;;;4.45;3.25;;;18.50;94.40;;;;;;5038897;28;20112;-84
2023/07/17 03:02:40;;;;;;;4.22;2.85;;;18.50;94.40;;;;;;5057079;28;20021;-84
2023/07/17 03:05:09;;;;;;;3.95;2.65;;;18.50;94.40;;;;;;5038921;28;20029;-85
2023/07/17 03:07:38;;;;;;;7.32;3.28;;;18.40;94.40;;;;;;5056866;28;20021;-85
2023/07/17 03:10:04;;;;;;;4.65;2.92;;;18.40;94.40;;;;;;5056676;28;20032;-84
2023/07/17 03:12:30;;;;;;;4.45;3.00;;;18.40;94.50;;;;;;5056596;28;20053;-85
2023/07/17 03:14:55;;;;;;;2.70;2.40;;;18.30;94.40;;;;;;5022345;28;20032;-84
2023/07/17 03:17:21;;;;;;;5.95;3.10;;;18.30;94.40;;;;;;5022069;28;20044;-84
2023/07/17 03:19:46;;;;;;;4.18;2.67;;;18.30;94.50;;;;;;5038710;28;20025;-84
2023/07/17 03:22:12;;;;;;;4.78;2.60;;;18.30;94.50;;;;;;5022087;28;20021;-85
2023/07/17 03:24:38;;;;;;;4.63;2.88;;;18.20;94.50;;;;;;5022190;28;20116;-84
2023/07/17 03:27:04;;;;;;;5.45;3.10;;;18.20;94.50;;;;;;5021938;28;20037;-85
2023/07/17 03:29:29;;;;;;;4.07;2.78;;;18.20;94.50;;;;;;5021979;28;20106;-84
2023/07/17 03:31:55;;;;;;;4.20;2.50;;;18.20;94.50;;;;;;5038973;28;20065;-85
2023/07/17 03:34:21;;;;;;;3.53;2.35;;;18.20;94.60;;;;;;5039512;28;20075;-85
2023/07/17 03:36:46;;;;;;;4.93;2.67;;;18.20;94.60;;;;;;5042503;28;20056;-84
2023/07/17 03:39:12;;;;;;;4.00;2.50;;;18.10;94.60;;;;;;5043488;28;20064;-84
2023/07/17 03:41:38;;;;;;;4.45;2.63;;;18.10;94.60;;;;;;5044095;28;20132;-85
2023/07/17 03:44:05;;;;;;;6.70;2.63;;;18.10;94.60;;;;;;5050379;28;20080;-84
2023/07/17 03:46:32;;;;;;;6.97;3.00;;;18.10;94.60;;;;;;5045907;28;20033;-85
2023/07/17 03:48:57;;;;;;;5.03;2.60;;;18.10;94.50;;;;;;5060851;28;20089;-84
2023/07/17 03:51:23;;;;;;;4.85;2.63;;;18.10;94.50;;;;;;5076161;28;20143;-85
2023/07/17 03:53:53;;;;;;;5.57;2.83;;;18.00;94.60;;;;;;5056171;28;20154;-85
2023/07/17 03:56:19;;;;;;;6.35;2.78;;;18.00;94.60;;;;;;5027467;28;20029;-84
2023/07/17 03:58:46;;;;;;;5.40;2.80;;;18.10;94.60;;;;;;5038487;28;20031;-84
2023/07/17 04:01:12;;;;;;;6.15;2.50;;;18.00;94.60;;;;;;5037906;28;20362;-84
2023/07/17 04:03:37;;;;;;;5.32;2.55;;;17.90;94.60;;;;;;5038477;28;20028;-84
2023/07/17 04:06:03;;;;;;;5.57;3.05;;;18.00;94.60;;;;;;5021370;28;20041;-84
2023/07/17 04:08:29;;;;;;;6.55;2.95;;;17.90;94.60;;;;;;5022083;28;20021;-84
2023/07/17 04:10:54;;;;;;;5.07;2.75;;;17.90;94.60;;;;;;5021552;28;20037;-84
2023/07/17 04:13:23;;;;;;;4.60;2.60;;;17.90;94.70;;;;;;5021474;28;20033;-84
2023/07/17 04:15:49;;;;;;;3.90;2.60;;;17.90;94.70;;;;;;5021847;28;20029;-84
2023/07/17 04:18:15;;;;;;;4.78;2.70;;;17.90;94.70;;;;;;5037800;28;20031;-84
2023/07/17 04:20:42;;;;;;;6.65;3.20;;;17.90;94.70;;;;;;5055762;28;20033;-84
2023/07/17 04:23:08;;;;;;;6.10;2.67;;;17.90;94.70;;;;;;5037602;28;20041;-84
2023/07/17 04:25:39;;;;;;;5.28;2.80;;;17.90;94.70;;;;;;5021226;28;20037;-84
2023/07/17 04:28:05;;;;;;;4.07;2.45;;;17.90;94.70;;;;;;5037811;28;20013;-84
2023/07/17 04:30:30;;;;;;;4.13;2.78;;;17.80;94.70;;;;;;5037518;28;20029;-84
2023/07/17 04:32:58;;;;;;;5.22;2.60;;;17.80;94.70;;;;;;5021095;28;20025;-84
2023/07/17 04:35:23;;;;;;;4.80;2.70;;;17.90;94.70;;;;;;5021161;28;20040;-84
2023/07/17 04:37:50;;;;;;;7.05;3.40;;;17.80;94.70;;;;;;5020694;28;20048;-84
2023/07/17 04:40:16;;;;;;;6.30;3.00;;;17.80;94.80;;;;;;5055298;28;20021;-84
2023/07/17 04:42:41;;;;;;;6.22;2.95;;;17.90;94.80;;;;;;5037428;28;20491;-83
2023/07/17 04:45:07;;;;;;;5.65;3.28;;;17.80;94.80;;;;;;5036362;28;20090;-82
2023/07/17 04:47:33;;;;;;;5.50;3.25;;;17.80;94.90;;;;;;5037604;28;20416;-83
2023/07/17 04:49:59;;;;;;;4.50;2.78;;;17.80;94.80;;;;;;5020722;28;20040;-84
2023/07/17 04:52:24;;;;;;;4.75;2.78;;;17.90;94.90;;;;;;5019935;28;20514;-84
2023/07/17 04:54:50;;;;;;;8.18;3.33;;;17.90;94.80;;;;;;5036564;28;20078;-84
2023/07/17 04:57:16;;;;;;;7.22;3.50;;;17.90;94.90;;;;;;5036893;28;20029;-83
2023/07/17 04:59:42;;;;;;;7.40;3.58;;;17.90;94.90;;;;;;5020072;28;20035;-83
2023/07/17 05:02:08;;;;;;;6.35;3.08;;;17.90;94.90;;;;;;5054362;28;20104;-83
2023/07/17 05:04:33;;;;;;;8.40;3.25;;;17.90;94.90;;;;;;5054870;28;20362;-83
2023/07/17 05:06:59;;;;;;;10.23;3.60;;;17.90;94.90;;;;;;5036823;28;20029;-82
2023/07/17 05:09:25;;;;;;;5.30;3.45;;;17.90;94.90;;;;;;5054183;28;20041;-84
2023/07/17 05:11:51;;;;;;;6.10;3.05;;;17.90;94.80;;;;;;5054797;28;20025;-83
2023/07/17 05:14:16;;;;;;;6.32;3.10;;;17.90;94.80;;;;;;5020490;28;20492;-84
2023/07/17 05:16:42;;;;;;;6.43;3.63;;;17.90;94.80;;;;;;5054792;28;20100;-84
2023/07/17 05:19:08;;;;;;;5.75;3.47;;;17.90;94.80;;;;;;5036523;28;20025;-84
2023/07/17 05:21:33;;;;;;;6.18;3.47;;;18.00;94.80;;;;;;5054771;28;20040;-83
2023/07/17 05:23:59;;;;;;;8.40;4.07;;;18.00;94.80;;;;;;5037246;28;20402;-83
2023/07/17 05:26:25;;;;;;;6.72;3.72;;;18.00;94.70;;;;;;5055249;28;20036;-83
2023/07/17 05:28:54;;;;;;;7.30;4.05;;;18.00;94.70;;;;;;5038093;28;20021;-84
2023/07/17 05:31:19;;;;;;;6.03;3.53;;;18.00;94.70;;;;;;5057274;28;20031;-83
2023/07/17 05:33:45;;;;;;;7.90;4.30;;;18.00;94.70;;;;;;5033817;28;20029;-83
2023/07/17 05:36:11;;;;;;;8.10;4.35;;;18.00;94.60;;;;;;5061115;28;20032;-83
2023/07/17 05:38:36;;;;;;;6.25;4.10;;;18.00;94.60;;;;;;5040880;28;20059;-82
2023/07/17 05:41:02;;;;;;;8.05;4.40;;;18.00;94.60;;;;;;5039522;28;20030;-83
2023/07/17 05:43:30;;;;;;;7.88;4.68;;;18.00;94.60;;;;;;5050630;28;20034;-83
2023/07/17 05:45:56;;;;;;;6.68;4.55;;;18.00;94.60;;;;;;5037817;28;20030;-83
2023/07/17 05:48:22;;;;;;;8.10;5.20;;;18.00;94.60;;;;;;5033796;28;20079;-83
2023/07/17 05:50:48;;;;;;;7.15;4.55;;;18.00;94.50;;;;;;5016641;28;20042;-83
2023/07/17 05:53:16;;;;;;;6.57;4.10;;;18.00;94.50;;;;;;5032962;28;20091;-83
2023/07/17 05:55:43;;;;;;;7.03;4.68;;;18.00;94.50;;;;;;5032393;28;20025;-83
2023/07/17 05:58:09;;;;;;;8.93;5.18;;;18.00;94.50;;;;;;5033813;28;20029;-83
2023/07/17 06:00:35;;;;;;;11.52;5.68;;;18.00;94.50;;;;;;5032431;28;20021;-84
2023/07/17 06:03:01;;;;;;;10.55;5.57;;;18.00;94.50;;;;;;5032601;28;20036;-83
2023/07/17 06:05:26;;;;;;;7.28;5.07;;;18.00;94.40;;;;;;5032287;28;20032;-83
2023/07/17 06:07:52;;;;;;;8.63;5.05;;;18.00;94.50;;;;;;5032838;28;20125;-83
2023/07/17 06:10:18;;;;;;;10.73;5.53;;;18.10;94.50;;;;;;5015995;28;20026;-83
2023/07/17 06:12:43;;;;;;;8.85;5.10;;;18.10;94.40;;;;;;5016234;28;20040;-83
2023/07/17 06:15:16;;;;;;;9.73;5.35;;;18.10;94.40;;;;;;5016123;28;20018;-83
2023/07/17 06:17:44;;;;;;;9.85;5.35;;;18.10;94.40;;;;;;5032523;28;20026;-83
2023/07/17 06:20:10;;;;;;;9.43;5.43;;;18.20;94.40;;;;;;5032430;28;20026;-84
2023/07/17 06:22:36;;;;;;;9.27;5.38;;;18.20;94.40;;;;;;4999512;28;20030;-83
2023/07/17 06:25:03;;;;;;;11.05;6.40;;;18.20;94.30;;;;;;5032199;28;20380;-84
2023/07/17 06:27:29;;;;;;;12.35;6.28;;;18.20;94.30;;;;;;5033388;28;20022;-83
2023/07/17 06:29:54;;;;;;;10.02;5.40;;;18.20;94.30;;;;;;5032161;28;20084;-83
2023/07/17 06:32:23;;;;;;;12.77;5.63;;;18.30;94.30;;;;;;5015933;28;20022;-82
2023/07/17 06:34:48;;;;;;;9.27;5.72;;;18.30;94.60;;;;;;5016320;28;20033;-83
2023/07/17 06:37:14;;;;;;;13.50;6.20;;;18.40;94.30;;;;;;5031876;28;20140;-83
2023/07/17 06:39:41;;;;;;;7.78;5.22;;;18.40;94.30;;;;;;5015762;28;20033;-84
2023/07/17 06:42:08;;;;;;;10.30;5.45;;;18.50;94.30;;;;;;5032422;28;20025;-83
2023/07/17 06:44:34;;;;;;;8.90;5.78;;;18.50;94.20;;;;;;5033131;28;20155;-83
2023/07/17 06:47:00;;;;;;;9.05;6.10;;;18.50;94.20;;;;;;5032248;28;20080;-83
2023/07/17 06:49:26;;;;;;;8.98;5.38;;;18.50;94.20;;;;;;5031685;28;20551;-83
2023/07/17 06:51:51;;;;;;;9.13;6.00;;;18.60;94.20;;;;;;5032013;28;20037;-83
2023/07/17 06:54:17;;;;;;;9.57;5.50;;;18.60;94.10;;;;;;5032089;28;20030;-83
2023/07/17 06:56:43;;;;;;;9.82;5.65;;;18.70;94.10;;;;;;5015730;28;20034;-83
2023/07/17 06:59:08;;;;;;;11.43;5.88;;;18.70;94.10;;;;;;5031854;28;20026;-83
2023/07/17 07:01:34;;;;;;;11.18;5.85;;;18.80;94.10;;;;;;5015582;28;20029;-83
2023/07/17 07:04:00;;;;;;;9.80;5.78;;;18.80;94.10;;;;;;5015569;28;20025;-83
2023/07/17 07:06:25;;;;;;;8.73;5.22;;;18.90;94.10;;;;;;5015426;28;20026;-83
2023/07/17 07:08:51;;;;;;;10.55;5.90;;;19.00;94.10;;;;;;5035164;28;20080;-83
2023/07/17 07:11:17;;;;;;;10.05;5.75;;;19.10;94.00;;;;;;5018859;28;20041;-83
2023/07/17 07:13:44;;;;;;;10.75;6.00;;;19.20;94.00;;;;;;5035903;28;20029;-84
2023/07/17 07:16:10;;;;;;;7.95;5.47;;;19.20;93.90;;;;;;5019717;28;20030;-84
2023/07/17 07:18:36;;;;;;;9.88;6.13;;;19.30;93.90;;;;;;5019340;28;20057;-83
2023/07/17 07:21:01;;;;;;;9.73;5.28;;;19.30;93.80;;;;;;5036318;28;20111;-83
2023/07/17 07:23:27;;;;;;;11.02;5.53;;;19.30;93.70;;;;;;5038892;28;20073;-83
2023/07/17 07:25:53;;;;;;;7.68;5.22;;;19.40;93.80;;;;;;5039886;28;20018;-83
2023/07/17 07:28:19;;;;;;;9.30;5.22;;;19.40;93.70;;;;;;5044039;28;20080;-83
2023/07/17 07:30:45;;;;;;;9.23;5.88;;;19.50;93.70;;;;;;5043330;28;20049;-83
2023/07/17 07:33:10;;;;;;;9.07;5.38;;;19.50;93.60;;;;;;5039912;28;20052;-83
2023/07/17 07:35:36;;;;;;;8.50;5.47;;;19.50;93.60;;;;;;5034875;28;20025;-84
2023/07/17 07:38:02;;;;;;;8.40;5.20;;;19.60;93.60;;;;;;5020898;28;20111;-83
2023/07/17 07:40:27;;;;;;;9.25;5.35;;;19.60;93.50;;;;;;5019242;28;20480;-83
2023/07/17 07:42:53;;;;;;;9.30;4.80;;;19.60;93.40;;;;;;5035004;28;20479;-83
2023/07/17 07:45:22;;;;;;;8.48;5.05;;;19.70;93.40;;;;;;5018625;28;20029;-83
2023/07/17 07:47:47;;;;;;;7.78;5.03;;;19.70;93.40;;;;;;5034924;28;20196;-84
2023/07/17 07:50:13;;;;;;;8.10;5.10;;;19.80;93.30;;;;;;5036228;28;20045;-83
2023/07/17 07:52:39;;;;;;;8.15;4.70;;;19.80;93.30;;;;;;5034845;28;20469;-83
2023/07/17 07:55:05;;;;;;;9.15;5.47;;;19.90;93.20;;;;;;5018305;28;20025;-83
2023/07/17 07:57:31;;;;;;;9.65;4.80;;;19.90;93.10;;;;;;5036040;28;20025;-83
2023/07/17 07:59:57;;;;;;;7.72;4.53;;;20.00;92.90;;;;;;5035195;28;20034;-83
2023/07/17 08:02:23;;;;;;;8.10;4.70;;;20.00;92.70;;;;;;5018294;28;20026;-84
2023/07/17 08:04:49;;;;;;;8.90;4.82;;;20.00;92.50;;;;;;5036058;28;20022;-83
2023/07/17 08:07:15;;;;;;;7.55;4.53;;;20.00;92.40;;;;;;5034607;28;20475;-83
2023/07/17 08:09:41;;;;;;;8.43;4.93;;;20.00;92.10;;;;;;5034578;28;20033;-83
2023/07/17 08:12:07;;;;;;;7.10;4.22;;;20.00;92.10;;;;;;5035323;28;20532;-83
2023/07/17 08:14:33;;;;;;;7.82;4.35;;;20.00;92.20;;;;;;5034355;28;20029;-83
2023/07/17 08:16:58;;;;;;;9.57;3.88;;;20.00;92.20;;;;;;5035963;28;20029;-83
2023/07/17 08:19:24;;;;;;;7.60;4.00;;;20.10;92.20;;;;;;5016964;28;20037;-83
2023/07/17 08:21:50;;;;;;;8.63;3.97;;;20.10;92.20;;;;;;5034303;28;20067;-84
2023/07/17 08:24:15;;;;;;;6.50;3.63;;;20.10;92.10;;;;;;5017850;28;20045;-83
2023/07/17 08:26:43;;;;;;;6.13;3.80;;;20.20;92.20;;;;;;5034748;28;20026;-83
2023/07/17 08:29:09;;;;;;;6.25;3.90;;;20.30;92.20;;;;;;5033956;28;20029;-83
2023/07/17 08:31:35;;;;;;;5.57;3.75;;;20.40;92.10;;;;;;5017619;28;20029;-83
2023/07/17 08:34:01;;;;;;;6.60;3.83;;;20.50;91.90;;;;;;5034231;28;20029;-83
2023/07/17 08:36:31;;;;;;;7.43;3.72;;;20.50;91.50;;;;;;5035276;28;20021;-83
2023/07/17 08:38:57;;;;;;;10.85;4.30;;;20.60;91.40;;;;;;5036627;28;20071;-83
2023/07/17 08:41:31;;;;;;;5.47;4.03;;;20.60;91.40;;;;;;5037251;28;20036;-83
2023/07/17 08:43:58;;;;;;;8.50;5.15;;;20.60;91.40;;;;;;5037466;28;20029;-83
2023/07/17 08:46:25;;;;;;;6.97;4.88;;;20.60;91.20;;;;;;5055211;28;20049;-83
2023/07/17 08:48:52;;;;;;;7.47;4.90;;;20.60;91.20;;;;;;5037314;28;20024;-83
2023/07/17 08:51:21;;;;;;;5.10;3.72;;;20.70;91.10;;;;;;5037465;28;20029;-84
2023/07/17 08:53:48;;;;;;;6.32;3.80;;;20.70;91.00;;;;;;5020676;28;20031;-83
2023/07/17 08:56:14;;;;;;;6.85;4.07;;;20.80;90.80;;;;;;5037274;28;20116;-83
2023/07/17 08:58:40;;;;;;;5.75;3.63;;;20.80;90.90;;;;;;5037121;28;20021;-83
2023/07/17 09:01:07;;;;;;;5.68;3.90;;;20.80;91.10;;;;;;5037068;28;20114;-84
2023/07/17 09:03:34;;;;;;;6.72;3.47;;;20.90;91.10;;;;;;5021068;28;20051;-83
2023/07/17 09:06:03;;;;;;;6.20;3.28;;;21.00;91.00;;;;;;5036957;28;20025;-84
2023/07/17 09:08:31;;;;;;;7.22;3.33;;;21.10;90.90;;;;;;5020667;28;20032;-83
2023/07/17 09:11:08;;;;;;;5.45;3.47;;;21.20;90.70;;;;;;5036972;28;20116;-83
2023/07/17 09:13:41;;;;;;;6.07;3.05;;;21.30;90.40;;;;;;5037601;28;20021;-83
2023/07/17 09:16:24;;;;;;;4.10;3.15;;;21.30;90.40;;;;;;5038579;28;20108;-83
2023/07/17 09:18:52;;;;;;;7.22;3.22;;;21.40;90.10;;;;;;5024215;28;20540;-84
2023/07/17 09:21:23;;;;;;;5.75;3.03;;;21.40;90.00;;;;;;5060713;28;20029;-83
2023/07/17 09:23:51;;;;;;;5.95;3.00;;;21.40;89.70;;;;;;5061541;28;20033;-83
2023/07/17 09:26:19;;;;;;;6.55;3.55;;;21.40;89.20;;;;;;5061729;28;20085;-83
2023/07/17 09:28:52;;;;;;;5.18;2.88;;;21.40;89.30;;;;;;5060882;28;20029;-84
2023/07/17 09:31:28;;;;;;;6.43;2.97;;;21.40;89.00;;;;;;5038861;28;20096;-83
2023/07/17 09:33:55;;;;;;;4.15;2.55;;;21.40;88.70;;;;;;5037137;28;20126;-84
2023/07/17 09:36:22;;;;;;;4.95;2.88;;;21.50;88.80;;;;;;5055074;28;20025;-83
2023/07/17 09:38:53;;;;;;;4.88;2.40;;;21.50;88.60;;;;;;5054288;28;20045;-83
2023/07/17 09:41:28;;;;;;;5.78;2.80;;;21.60;88.60;;;;;;5020062;28;20037;-83
2023/07/17 09:44:04;;;;;;;7.40;2.78;;;21.60;88.60;;;;;;5036496;28;20079;-83
2023/07/17 09:46:35;;;;;;;4.95;2.75;;;21.70;88.80;;;;;;5036238;28;20057;-84
2023/07/17 09:49:03;;;;;;;5.72;3.22;;;21.80;88.80;;;;;;5036044;28;20399;-84
2023/07/17 09:51:35;;;;;;;6.28;3.30;;;21.90;88.50;;;;;;5036359;28;20366;-84
2023/07/17 09:54:02;;;;;;;6.85;3.03;;;22.00;88.30;;;;;;5035737;28;20024;-84
2023/07/17 09:56:30;;;;;;;4.57;2.92;;;22.00;88.20;;;;;;5053827;28;20056;-83
2023/07/17 09:59:08;;;;;;;7.65;3.08;;;22.10;88.30;;;;;;5035589;28;20111;-84
2023/07/17 10:01:36;;;;;;;6.65;3.03;;;22.10;88.20;;;;;;5054123;28;20025;-84
2023/07/17 10:04:05;;;;;;;3.60;2.63;;;22.20;88.00;;;;;;5053468;28;20021;-84
2023/07/17 10:06:32;;;;;;;5.75;2.58;;;22.30;87.80;;;;;;5035931;28;20028;-85
2023/07/17 10:08:59;;;;;;;6.10;3.15;;;22.40;88.00;;;;;;5036040;28;20025;-84
2023/07/17 10:11:25;;;;;;;5.13;2.65;;;22.40;88.00;;;;;;5019453;28;20067;-84
2023/07/17 10:13:51;;;;;;;5.22;2.95;;;22.60;87.90;;;;;;5035968;28;20052;-83
2023/07/17 10:16:18;;;;;;;4.80;3.05;;;22.60;87.50;;;;;;5053413;28;20044;-83
2023/07/17 10:18:48;;;;;;;5.63;2.85;;;22.70;87.40;;;;;;5036117;28;20047;-84
2023/07/17 10:21:16;;;;;;;6.07;2.72;;;22.70;87.10;;;;;;5053558;28;20025;-84
2023/07/17 10:23:43;;;;;;;4.90;3.00;;;22.70;86.90;;;;;;5035680;28;20108;-84
2023/07/17 10:26:11;;;;;;;6.28;2.90;;;22.70;86.20;;;;;;5035713;28;20025;-85
2023/07/17 10:28:37;;;;;;;7.63;2.88;;;22.70;86.50;;;;;;5019097;28;20055;-85
2023/07/17 10:31:16;;;;;;;6.22;2.92;;;22.70;86.50;;;;;;5035112;28;20021;-84
2023/07/17 10:33:49;;;;;;;4.13;2.75;;;22.80;86.10;;;;;;5035711;28;20029;-84
2023/07/17 10:36:16;;;;;;;7.93;3.30;;;22.80;86.20;;;;;;5035384;28;20032;-84
2023/07/17 10:38:47;;;;;;;5.22;3.08;;;22.90;86.40;;;;;;5035332;28;20045;-84
2023/07/17 10:41:13;;;;;;;4.88;2.90;;;22.90;86.00;;;;;;5035529;28;20106;-85
2023/07/17 10:43:53;;;;;;;6.68;2.47;;;23.00;86.00;;;;;;5038430;28;20029;-85
2023/07/17 10:46:19;;;;;;;5.60;3.15;;;23.10;85.90;;;;;;5039361;28;20027;-85
2023/07/17 10:48:45;;;;;;;4.88;2.80;;;23.00;85.50;;;;;;5039685;28;20032;-84
2023/07/17 10:51:10;;;;;;;4.82;2.80;;;23.00;84.90;;;;;;5039366;28;20024;-84
2023/07/17 10:53:36;;;;;;;6.88;2.70;;;23.10;84.80;;;;;;5039526;28;20440;-84
2023/07/17 10:56:02;;;;;;;4.75;1.73;;;23.10;84.70;;;;;;5039376;28;20029;-84
2023/07/17 10:58:27;;;;;;;5.10;1.67;;;23.00;83.10;;;;;;5023415;28;20071;-84
2023/07/17 11:00:55;;;;;;;3.88;1.95;;;22.90;82.40;;;;;;5023005;28;20029;-84
2023/07/17 11:03:24;;;;;;;1.65;1.17;;;22.80;82.30;;;;;;5039616;28;20033;-84
2023/07/17 11:05:55;;;;;;;2.08;1.20;;;22.80;81.80;;;;;;5057317;28;20472;-85
2023/07/17 11:08:20;;;;;;;;;;;22.60;81.40;;;;;;5058255;28;20020;-85
2023/07/17 11:10:46;;;;;;;1.23;0.90;;;22.60;81.80;;;;;;5040429;28;19908;-84
2023/07/17 11:13:12;;;;;;;2.58;0.98;;;22.50;82.00;;;;;;5041641;28;20071;-84
2023/07/17 11:15:38;;;;;;;3.33;1.30;;;22.40;81.80;;;;;;5043587;28;20025;-85
2023/07/17 11:18:06;;;;;;;2.10;1.13;;;22.30;81.50;;;;;;5079535;28;20025;-84
2023/07/17 11:20:32;;;;;;;3.38;1.67;;;22.40;82.30;;;;;;5063928;28;20073;-84
2023/07/17 11:22:58;;;;;;;2.55;1.35;;;22.30;82.50;;;;;;5081323;28;20027;-84
2023/07/17 11:25:28;;;;;;;4.60;1.50;;;22.40;82.60;;;;;;5081006;28;20049;-84
2023/07/17 11:27:55;;;;;;;3.33;1.67;;;22.30;82.60;;;;;;5080904;28;20022;-84
2023/07/17 11:30:30;;;;;;;3.08;1.50;;;22.40;82.70;;;;;;5081010;28;20050;-84
2023/07/17 11:33:02;;;;;;;3.08;1.50;;;22.30;82.80;;;;;;5063125;28;20029;-84
2023/07/17 11:35:43;;;;;;;2.47;1.55;;;22.30;83.40;;;;;;5078023;28;20014;-84
2023/07/17 11:38:10;;;;;;;;;;;22.30;83.40;;;;;;5057247;28;20041;-84
2023/07/17 11:41:01;;;;;;;2.67;1.70;;;22.40;83.10;;;;;;5038947;28;19911;-85
2023/07/17 11:43:37;;;;;;;3.78;1.73;;;22.40;83.40;;;;;;5039203;28;20103;-84
2023/07/17 11:46:08;;;;;;;2.05;1.60;;;22.40;83.60;;;;;;5022430;28;20037;-85
2023/07/17 11:48:36;;;;;;;4.45;1.98;;;22.50;83.70;;;;;;5038684;28;20476;-84
2023/07/17 11:51:04;;;;;;;4.10;2.05;;;22.60;83.50;;;;;;5038378;28;20491;-84
2023/07/17 11:53:31;;;;;;;5.30;2.10;;;22.60;83.10;;;;;;5056606;28;20036;-84
2023/07/17 11:55:59;;;;;;;4.18;2.47;;;22.60;83.10;;;;;;5056451;28;20434;-84
2023/07/17 11:58:29;;;;;;;5.43;2.40;;;22.60;82.00;;;;;;5038212;28;20376;-84
2023/07/17 12:00:55;;;;;;;3.88;2.20;;;22.60;82.00;;;;;;5038467;28;20033;-84
2023/07/17 12:03:22;;;;;;;3.67;2.53;;;22.60;82.00;;;;;;5038112;28;20021;-84
2023/07/17 12:05:48;;;;;;;3.28;2.15;;;22.60;81.30;;;;;;5038674;28;20028;-84
2023/07/17 12:08:14;;;;;;;3.88;2.20;;;22.70;81.30;;;;;;5021617;28;20025;-84
2023/07/17 12:10:40;;;;;;;3.53;2.45;;;22.70;81.00;;;;;;5038014;28;20021;-84
2023/07/17 12:13:06;;;;;;;5.00;2.30;;;22.70;80.40;;;;;;5055710;28;20025;-85
2023/07/17 12:15:33;;;;;;;3.70;2.35;;;22.60;79.90;;;;;;5038066;28;20025;-84
2023/07/17 12:17:59;;;;;;;4.63;2.28;;;22.60;80.30;;;;;;5056077;28;20021;-83
2023/07/17 12:20:26;;;;;;;4.60;2.35;;;22.50;81.00;;;;;;5037785;28;20043;-84
2023/07/17 12:22:54;;;;;;;4.25;2.35;;;22.40;81.90;;;;;;5055387;28;20052;-84
2023/07/17 12:25:19;;;;;;;4.40;2.35;;;22.40;82.80;;;;;;5037511;28;20057;-84
2023/07/17 12:27:46;;;;;;;6.53;2.97;;;22.40;83.50;;;;;;5055484;28;20064;-84
2023/07/17 12:30:13;;;;;;;4.22;2.47;;;22.40;84.30;;;;;;5021150;28;20076;-84
2023/07/17 12:32:40;;;;;;;5.43;2.72;;;22.40;84.60;;;;;;5055396;28;20105;-85
2023/07/17 12:35:07;;;;;;;6.70;2.70;;;22.40;84.70;;;;;;5037275;28;20025;-84
2023/07/17 12:37:32;;;;;;;5.78;2.97;;;22.30;84.30;;;;;;5054951;28;20072;-84
2023/07/17 12:39:58;;;;;;;7.47;3.42;;;22.20;84.30;;;;;;5055140;28;20040;-83
2023/07/17 12:42:24;;;;;;;7.45;3.45;;;22.10;84.30;;;;;;5020722;28;20029;-84
2023/07/17 12:44:53;;;;;;;5.88;3.53;;;22.00;84.50;;;;;;5037059;28;20021;-84
2023/07/17 12:47:19;;;;;;;4.80;3.33;;;22.00;84.90;;;;;;5037385;28;20171;-84